createdAt,value
2019-03-20T00:01:24.671Z,99.90
2019-03-20T00:03:55.617Z,99.90
2019-03-20T00:06:23.720Z,99.90
2019-03-20T00:08:51.632Z,99.90
2019-03-20T00:11:19.591Z,99.90
2019-03-20T00:13:50.572Z,99.90
2019-03-20T00:16:18.854Z,99.90
2019-03-20T00:18:46.825Z,99.90
2019-03-20T00:21:14.723Z,99.90
2019-03-20T00:23:46.777Z,99.90
2019-03-20T00:26:17.832Z,99.90
2019-03-20T00:28:45.793Z,99.90
2019-03-20T00:31:16.800Z,99.90
2019-03-20T00:33:44.702Z,99.90
2019-03-20T00:36:12.845Z,99.90
2019-03-20T00:38:43.817Z,99.90
2019-03-20T00:41:11.791Z,99.90
2019-03-20T00:43:39.679Z,99.90
2019-03-20T00:46:07.661Z,99.90
2019-03-20T00:48:35.581Z,99.90
2019-03-20T00:51:03.590Z,99.90
2019-03-20T00:53:34.589Z,99.90
2019-03-20T00:56:02.598Z,99.90
2019-03-20T00:58:30.524Z,99.90
2019-03-20T01:00:58.542Z,99.90
2019-03-20T01:03:29.557Z,99.90
2019-03-20T01:06:00.273Z,99.90
2019-03-20T01:08:28.243Z,99.90
2019-03-20T01:11:02.526Z,99.90
2019-03-20T01:13:33.249Z,99.90
2019-03-20T01:16:01.148Z,99.90
2019-03-20T01:18:31.896Z,99.90
2019-03-20T01:20:59.890Z,99.90
2019-03-20T01:23:27.788Z,99.90
2019-03-20T01:25:55.734Z,99.90
2019-03-20T01:28:23.664Z,99.90
2019-03-20T01:30:54.409Z,99.90
2019-03-20T01:33:22.401Z,99.90
2019-03-20T01:35:50.584Z,99.90
2019-03-20T01:38:18.594Z,99.90
2019-03-20T01:40:53.848Z,99.90
2019-03-20T01:43:21.710Z,99.90
2019-03-20T01:45:49.909Z,99.90
2019-03-20T01:48:24.036Z,99.90
2019-03-20T01:50:55.117Z,99.90
2019-03-20T01:53:23.075Z,99.90
2019-03-20T01:55:51.356Z,99.90
2019-03-20T01:58:22.335Z,99.90
2019-03-20T02:00:50.554Z,99.90
2019-03-20T02:03:21.716Z,99.90
2019-03-20T02:05:52.753Z,99.90
2019-03-20T02:08:23.513Z,99.90
2019-03-20T02:10:54.587Z,99.90
2019-03-20T02:13:22.780Z,99.90
2019-03-20T02:15:58.430Z,99.90
2019-03-20T02:18:29.123Z,99.90
2019-03-20T02:20:58.288Z,99.90
2019-03-20T02:23:26.485Z,99.90
2019-03-20T02:25:54.674Z,99.90
2019-03-20T02:28:23.609Z,99.90
2019-03-20T02:30:54.329Z,99.90
2019-03-20T02:33:22.291Z,99.90
2019-03-20T02:35:52.143Z,99.90
2019-03-20T02:38:19.956Z,99.90
2019-03-20T02:40:47.874Z,99.90
2019-03-20T02:43:15.786Z,99.90
2019-03-20T02:45:43.753Z,99.90
2019-03-20T02:48:11.664Z,99.90
2019-03-20T02:50:39.632Z,99.90
2019-03-20T02:53:07.563Z,99.90
2019-03-20T02:55:35.629Z,99.90
2019-03-20T02:58:03.878Z,99.90
2019-03-20T03:00:37.857Z,99.90
2019-03-20T03:03:05.821Z,99.90
2019-03-20T03:05:33.931Z,99.90
2019-03-20T03:08:01.905Z,99.90
2019-03-20T03:10:29.923Z,99.90
2019-03-20T03:13:03.919Z,99.90
2019-03-20T03:15:32.184Z,99.90
2019-03-20T03:18:02.940Z,99.90
2019-03-20T03:20:31.131Z,99.90
2019-03-20T03:22:59.050Z,99.90
2019-03-20T03:25:26.967Z,99.90
2019-03-20T03:27:54.942Z,99.90
2019-03-20T03:30:25.960Z,99.90
2019-03-20T03:33:00.041Z,99.90
2019-03-20T03:35:28.026Z,99.90
2019-03-20T03:37:59.128Z,99.90
2019-03-20T03:40:27.113Z,99.90
2019-03-20T03:42:58.089Z,99.90
2019-03-20T03:45:26.019Z,99.90
2019-03-20T03:47:53.991Z,99.90
2019-03-20T03:50:24.919Z,99.90
2019-03-20T03:52:52.909Z,99.90
2019-03-20T03:55:20.832Z,99.90
2019-03-20T03:57:51.927Z,99.90
2019-03-20T04:00:22.926Z,99.90
2019-03-20T04:02:51.146Z,99.90
2019-03-20T04:05:19.138Z,99.90
2019-03-20T04:07:47.144Z,99.90
2019-03-20T04:10:15.147Z,99.90
2019-03-20T04:12:47.498Z,99.90
2019-03-20T04:15:18.545Z,99.90
2019-03-20T04:17:46.655Z,99.90
2019-03-20T04:20:14.722Z,99.90
2019-03-20T04:22:43.001Z,99.90
2019-03-20T04:25:11.372Z,99.90
2019-03-20T04:27:39.347Z,99.90
2019-03-20T04:30:07.392Z,99.90
2019-03-20T04:32:35.378Z,99.90
2019-03-20T04:35:03.374Z,99.90
2019-03-20T04:37:31.515Z,99.90
2019-03-20T04:39:59.439Z,99.90
2019-03-20T04:42:27.350Z,99.90
2019-03-20T04:44:55.525Z,99.90
2019-03-20T04:47:23.428Z,99.90
2019-03-20T04:49:51.376Z,99.90
2019-03-20T04:52:19.278Z,99.90
2019-03-20T04:54:47.455Z,99.90
2019-03-20T04:57:15.387Z,99.90
2019-03-20T04:59:43.285Z,99.90
2019-03-20T05:02:14.537Z,99.90
2019-03-20T05:04:42.444Z,99.90
2019-03-20T05:07:10.360Z,99.90
2019-03-20T05:09:41.358Z,99.90
2019-03-20T05:12:09.269Z,99.90
2019-03-20T05:14:38.649Z,99.90
2019-03-20T05:17:07.733Z,99.90
2019-03-20T05:19:42.017Z,99.90
2019-03-20T05:22:13.886Z,99.90
2019-03-20T05:24:42.725Z,99.90
2019-03-20T05:27:11.581Z,99.90
2019-03-20T05:29:40.676Z,99.90
2019-03-20T05:32:09.641Z,99.90
2019-03-20T05:34:38.547Z,99.90
2019-03-20T05:37:10.759Z,99.90
2019-03-20T05:39:38.215Z,99.90
2019-03-20T05:42:10.269Z,99.90
2019-03-20T05:44:39.169Z,99.90
2019-03-20T05:47:14.049Z,99.90
2019-03-20T05:49:45.737Z,99.90
2019-03-20T05:52:14.552Z,99.90
2019-03-20T05:54:43.393Z,99.90
2019-03-20T05:57:12.732Z,99.90
2019-03-20T05:59:41.782Z,99.90
2019-03-20T06:02:09.979Z,99.90
2019-03-20T06:04:40.722Z,99.90
2019-03-20T06:07:08.650Z,99.90
2019-03-20T06:09:36.600Z,99.90
2019-03-20T06:12:07.618Z,99.90
2019-03-20T06:14:35.588Z,99.90
2019-03-20T06:17:03.829Z,99.90
2019-03-20T06:19:31.769Z,99.90
2019-03-20T06:21:59.738Z,99.90
2019-03-20T06:24:30.496Z,99.90
2019-03-20T06:26:58.623Z,99.90
2019-03-20T06:29:27.304Z,99.90
2019-03-20T06:31:55.277Z,99.90
2019-03-20T06:34:23.236Z,99.90
2019-03-20T06:36:51.427Z,99.90
2019-03-20T06:39:19.341Z,99.90
2019-03-20T06:41:47.486Z,99.90
2019-03-20T06:44:15.482Z,99.90
2019-03-20T06:46:43.444Z,99.90
2019-03-20T06:49:11.333Z,99.90
2019-03-20T06:51:39.251Z,99.90
2019-03-20T06:54:07.221Z,99.90
2019-03-20T06:56:36.618Z,99.90
2019-03-20T06:59:41.998Z,99.90
2019-03-20T07:02:15.657Z,99.90
2019-03-20T07:05:02.803Z,99.90
2019-03-20T07:07:43.176Z,99.90
2019-03-20T07:10:27.660Z,99.90
2019-03-20T07:12:55.569Z,99.90
2019-03-20T07:15:23.455Z,99.90
2019-03-20T07:17:54.107Z,99.90
2019-03-20T07:20:21.972Z,99.90
2019-03-20T07:22:52.963Z,99.90
2019-03-20T07:25:23.955Z,99.90
2019-03-20T07:27:54.683Z,99.90
2019-03-20T07:30:22.654Z,99.90
2019-03-20T07:32:50.555Z,99.90
2019-03-20T07:35:18.440Z,99.90
2019-03-20T07:37:56.323Z,99.90
2019-03-20T07:40:21.865Z,99.90
2019-03-20T07:42:49.747Z,99.90
2019-03-20T07:45:17.737Z,99.90
2019-03-20T07:47:49.698Z,99.90
2019-03-20T07:50:17.651Z,99.90
2019-03-20T07:52:45.573Z,99.90
2019-03-20T07:55:13.469Z,99.90
2019-03-20T07:57:44.177Z,99.90
2019-03-20T08:00:12.982Z,99.90
2019-03-20T08:02:40.852Z,99.90
2019-03-20T08:05:09.917Z,99.90
2019-03-20T08:07:41.203Z,99.90
2019-03-20T08:10:10.060Z,99.90
2019-03-20T08:12:39.394Z,99.90
2019-03-20T08:15:08.681Z,99.90
2019-03-20T08:17:36.796Z,99.90
2019-03-20T08:20:08.430Z,99.90
2019-03-20T08:22:39.722Z,99.90
2019-03-20T08:25:07.709Z,99.90
2019-03-20T08:27:41.609Z,99.90
2019-03-20T08:30:10.365Z,99.90
2019-03-20T08:32:41.695Z,99.90
2019-03-20T08:35:09.662Z,99.90
2019-03-20T08:37:37.553Z,99.90
2019-03-20T08:40:05.728Z,99.90
2019-03-20T08:42:33.621Z,99.90
2019-03-20T08:45:01.520Z,99.90
2019-03-20T08:47:29.638Z,99.90
2019-03-20T08:49:59.974Z,99.90
2019-03-20T08:52:27.932Z,99.90
2019-03-20T08:54:55.899Z,99.90
2019-03-20T08:57:26.214Z,99.90
2019-03-20T08:59:56.920Z,99.90
2019-03-20T09:02:24.812Z,99.90
2019-03-20T09:04:55.736Z,99.90
2019-03-20T09:07:23.627Z,99.90
2019-03-20T09:09:51.535Z,99.90
2019-03-20T09:12:19.417Z,99.90
2019-03-20T09:14:47.301Z,99.90
2019-03-20T09:17:15.200Z,99.90
2019-03-20T09:19:43.105Z,99.90
2019-03-20T09:22:13.790Z,99.90
2019-03-20T09:24:41.694Z,99.90
2019-03-20T09:27:09.569Z,99.90
2019-03-20T09:29:37.469Z,99.90
2019-03-20T09:32:05.684Z,99.90
2019-03-20T09:34:36.684Z,99.90
2019-03-20T09:37:04.581Z,99.90
2019-03-20T09:39:32.522Z,99.90
2019-03-20T09:42:01.110Z,99.90
2019-03-20T09:44:29.001Z,99.90
2019-03-20T09:46:56.912Z,99.90
2019-03-20T09:49:27.913Z,99.90
2019-03-20T09:51:55.817Z,99.90
2019-03-20T09:54:23.708Z,99.90
2019-03-20T09:56:51.673Z,99.90
2019-03-20T09:59:19.653Z,99.90
2019-03-20T10:01:50.659Z,99.90
2019-03-20T10:04:18.535Z,99.90
2019-03-20T10:06:46.505Z,99.90
2019-03-20T10:09:17.497Z,99.90
2019-03-20T10:11:45.389Z,99.90
2019-03-20T10:14:16.360Z,99.90
2019-03-20T10:16:47.253Z,99.90
2019-03-20T10:19:15.140Z,99.90
2019-03-20T10:21:43.034Z,99.90
2019-03-20T10:24:11.251Z,99.90
2019-03-20T10:26:39.256Z,99.90
2019-03-20T10:29:07.141Z,99.90
2019-03-20T10:31:35.065Z,99.90
2019-03-20T10:34:03.032Z,99.90
2019-03-20T10:36:31.164Z,99.90
2019-03-20T10:39:06.847Z,99.90
2019-03-20T10:41:34.204Z,99.90
2019-03-20T10:44:02.189Z,99.90
2019-03-20T10:46:30.108Z,99.90
2019-03-20T10:49:01.054Z,99.90
2019-03-20T10:51:29.035Z,99.90
2019-03-20T10:53:56.953Z,99.90
2019-03-20T10:56:24.853Z,99.90
2019-03-20T10:58:52.759Z,99.90
2019-03-20T11:01:21.203Z,99.90
2019-03-20T11:03:49.175Z,99.90
2019-03-20T11:06:17.155Z,99.90
2019-03-20T11:08:45.047Z,99.90
2019-03-20T11:11:26.315Z,99.90
2019-03-20T11:13:48.175Z,99.90
2019-03-20T11:16:16.050Z,99.90
2019-03-20T11:18:48.549Z,99.90
2019-03-20T11:21:22.414Z,99.90
2019-03-20T11:23:50.305Z,99.90
2019-03-20T11:26:21.083Z,99.90
2019-03-20T11:28:48.977Z,99.90
2019-03-20T11:31:16.977Z,99.90
2019-03-20T11:33:44.890Z,99.90
2019-03-20T11:36:12.783Z,99.90
2019-03-20T11:38:40.764Z,99.90
2019-03-20T11:41:11.502Z,99.90
2019-03-20T11:43:39.405Z,99.90
2019-03-20T11:46:16.541Z,99.90
2019-03-20T11:48:44.446Z,99.90
2019-03-20T11:51:12.404Z,99.90
2019-03-20T11:53:43.961Z,99.90
2019-03-20T11:56:11.930Z,99.90
2019-03-20T11:58:39.829Z,99.90
2019-03-20T12:01:07.806Z,99.90
2019-03-20T12:03:35.761Z,99.90
2019-03-20T12:06:06.842Z,99.90
2019-03-20T12:08:37.878Z,99.90
2019-03-20T12:11:08.616Z,99.90
2019-03-20T12:13:39.266Z,99.90
2019-03-20T12:16:07.175Z,99.90
2019-03-20T12:18:35.092Z,99.90
2019-03-20T12:21:03.107Z,99.90
2019-03-20T12:23:37.903Z,94.10
2019-03-20T12:26:16.061Z,97.70
2019-03-20T12:28:59.142Z,92.40
2019-03-20T12:31:27.625Z,93.50
2019-03-20T12:33:58.138Z,77.60
2019-03-20T12:36:35.548Z,96.60
2019-03-20T12:39:09.004Z,97.00
2019-03-20T12:41:44.021Z,90.40
2019-03-20T12:44:18.410Z,83.80
2019-03-20T12:46:47.217Z,65.60
2019-03-20T12:49:19.115Z,71.70
2019-03-20T12:51:53.953Z,70.50
2019-03-20T12:54:22.753Z,82.20
2019-03-20T12:56:51.654Z,64.90
2019-03-20T12:59:20.667Z,76.40
2019-03-20T13:01:49.615Z,67.90
2019-03-20T13:04:18.653Z,79.70
2019-03-20T13:06:47.487Z,73.40
2019-03-20T13:09:22.216Z,60.30
2019-03-20T13:11:57.174Z,61.10
2019-03-20T13:14:29.210Z,62.60
2019-03-20T13:16:58.113Z,56.70
2019-03-20T13:19:27.003Z,52.30
2019-03-20T13:21:56.000Z,57.60
2019-03-20T13:24:24.814Z,53.70
2019-03-20T13:26:54.003Z,55.30
2019-03-20T13:29:22.823Z,55.00
2019-03-20T13:31:51.654Z,51.90
2019-03-20T13:34:20.477Z,50.90
2019-03-20T13:36:49.369Z,53.00
2019-03-20T13:39:18.296Z,45.50
2019-03-20T13:41:50.289Z,46.20
2019-03-20T13:44:19.105Z,49.20
2019-03-20T13:46:48.134Z,50.00
2019-03-20T13:49:19.846Z,44.90
2019-03-20T13:51:54.595Z,43.50
2019-03-20T13:54:23.463Z,48.80
2019-03-20T13:56:52.645Z,49.30
2019-03-20T13:59:21.449Z,45.10
2019-03-20T14:01:53.421Z,47.30
2019-03-20T14:04:22.246Z,46.60
2019-03-20T14:06:51.374Z,48.30
2019-03-20T14:09:20.488Z,46.30
2019-03-20T14:11:52.220Z,45.30
2019-03-20T14:14:24.205Z,50.20
2019-03-20T14:16:53.661Z,46.10
2019-03-20T14:19:25.322Z,48.00
2019-03-20T14:21:54.422Z,44.90
2019-03-20T14:24:23.313Z,45.50
2019-03-20T14:26:52.213Z,44.90
2019-03-20T14:29:21.351Z,42.90
2019-03-20T14:31:51.907Z,43.20
2019-03-20T14:34:20.781Z,43.70
2019-03-20T14:36:58.729Z,43.10
2019-03-20T14:39:27.577Z,42.00
2019-03-20T14:41:56.393Z,44.00
2019-03-20T14:44:32.301Z,43.50
2019-03-20T14:47:01.509Z,47.20
2019-03-20T14:49:30.380Z,43.60
2019-03-20T14:51:59.568Z,40.20
2019-03-20T14:54:29.553Z,43.30
2019-03-20T14:56:58.407Z,45.60
2019-03-20T14:59:31.433Z,45.40
2019-03-20T15:02:00.641Z,43.20
2019-03-20T15:04:29.462Z,44.70
2019-03-20T15:06:58.369Z,43.70
2019-03-20T15:09:30.317Z,45.20
2019-03-20T15:12:01.048Z,47.60
2019-03-20T15:14:30.286Z,48.70
2019-03-20T15:16:59.375Z,47.20
2019-03-20T15:19:35.432Z,46.60
2019-03-20T15:22:04.374Z,48.70
2019-03-20T15:24:33.317Z,52.20
2019-03-20T15:27:02.157Z,51.50
2019-03-20T15:29:31.223Z,48.10
2019-03-20T15:32:13.588Z,45.20
2019-03-20T15:34:42.525Z,45.90
2019-03-20T15:37:11.351Z,42.80
2019-03-20T15:39:42.333Z,46.60
2019-03-20T15:42:11.349Z,45.40
2019-03-20T15:44:40.249Z,46.50
2019-03-20T15:47:11.888Z,45.00
2019-03-20T15:49:42.229Z,44.70
2019-03-20T15:52:11.418Z,42.50
2019-03-20T15:54:40.213Z,40.10
2019-03-20T15:57:09.021Z,41.60
2019-03-20T15:59:38.012Z,42.20
2019-03-20T16:02:07.553Z,44.30
2019-03-20T16:04:39.519Z,43.70
2019-03-20T16:07:08.325Z,42.70
2019-03-20T16:09:41.803Z,40.40
2019-03-20T16:12:08.001Z,44.40
2019-03-20T16:14:40.155Z,45.80
2019-03-20T16:17:09.195Z,43.20
2019-03-20T16:19:44.207Z,43.10
2019-03-20T16:22:13.105Z,43.00
2019-03-20T16:24:44.970Z,40.40
2019-03-20T16:27:22.960Z,40.90
2019-03-20T16:29:52.033Z,44.10
2019-03-20T16:32:23.228Z,44.50
2019-03-20T16:34:54.974Z,46.40
2019-03-20T16:37:23.790Z,49.00
2019-03-20T16:40:01.916Z,50.00
2019-03-20T16:42:30.852Z,49.90
2019-03-20T16:44:59.672Z,53.50
2019-03-20T16:47:34.604Z,55.50
2019-03-20T16:50:03.710Z,57.20
2019-03-20T16:52:32.520Z,59.40
2019-03-20T16:55:01.706Z,66.20
2019-03-20T16:57:30.616Z,86.60
2019-03-20T17:00:02.685Z,87.40
2019-03-20T17:02:31.601Z,99.50
2019-03-20T17:05:00.499Z,99.90
2019-03-20T17:07:28.386Z,99.90
2019-03-20T17:09:56.309Z,99.90
2019-03-20T17:12:24.644Z,99.90
2019-03-20T17:14:52.568Z,99.90
2019-03-20T17:17:21.627Z,99.90
2019-03-20T17:19:49.814Z,99.90
2019-03-20T17:22:27.158Z,99.90
2019-03-20T17:24:55.733Z,99.90
2019-03-20T17:27:23.684Z,99.90
2019-03-20T17:29:51.651Z,99.90
2019-03-20T17:32:19.654Z,99.90
2019-03-20T17:34:47.637Z,99.90
2019-03-20T17:37:15.633Z,99.90
2019-03-20T17:39:46.820Z,99.90
2019-03-20T17:42:20.860Z,99.90
2019-03-20T17:44:50.093Z,99.90
2019-03-20T17:47:17.979Z,99.90
2019-03-20T17:49:46.909Z,99.90
2019-03-20T17:52:14.920Z,99.90
2019-03-20T17:54:42.828Z,99.90
2019-03-20T17:57:10.843Z,99.90
2019-03-20T17:59:38.746Z,99.90
2019-03-20T18:02:07.028Z,99.90
2019-03-20T18:04:35.207Z,99.90
2019-03-20T18:07:03.214Z,99.90
2019-03-20T18:09:37.582Z,99.90
2019-03-20T18:12:08.442Z,99.90
2019-03-20T18:14:36.384Z,99.90
2019-03-20T18:17:07.290Z,99.90
2019-03-20T18:19:35.400Z,99.90
2019-03-20T18:22:03.397Z,99.90
2019-03-20T18:24:31.305Z,99.90
2019-03-20T18:26:59.204Z,99.90
2019-03-20T18:29:30.033Z,99.90
2019-03-20T18:31:58.077Z,99.90
2019-03-20T18:34:26.627Z,99.90
2019-03-20T18:36:55.897Z,99.90
2019-03-20T18:39:23.982Z,99.90
2019-03-20T18:41:57.816Z,99.90
2019-03-20T18:44:21.722Z,99.90
2019-03-20T18:46:49.614Z,99.90
2019-03-20T18:49:17.541Z,99.90
2019-03-20T18:51:45.478Z,99.90
2019-03-20T18:54:13.359Z,99.90
2019-03-20T18:56:41.334Z,99.90
2019-03-20T18:59:09.304Z,99.90
2019-03-20T19:01:37.320Z,99.90
2019-03-20T19:04:05.332Z,99.90
2019-03-20T19:06:33.580Z,99.90
2019-03-20T19:09:01.523Z,99.90
2019-03-20T19:11:35.848Z,99.90
2019-03-20T19:14:04.093Z,99.90
2019-03-20T19:16:32.016Z,99.90
2019-03-20T19:19:00.282Z,99.90
2019-03-20T19:21:28.272Z,99.90
2019-03-20T19:23:56.521Z,99.90
2019-03-20T19:26:25.024Z,99.90
2019-03-20T19:28:53.487Z,99.90
2019-03-20T19:31:22.470Z,99.90
2019-03-20T19:33:50.956Z,99.90
2019-03-20T19:36:19.381Z,99.90
2019-03-20T19:38:47.731Z,99.90
2019-03-20T19:41:20.002Z,99.90
2019-03-20T19:43:48.032Z,99.90
2019-03-20T19:46:16.024Z,99.90
2019-03-20T19:48:44.475Z,99.90
2019-03-20T19:51:12.745Z,99.90
2019-03-20T19:53:45.841Z,99.90
2019-03-20T19:56:15.628Z,99.90
2019-03-20T19:58:44.578Z,99.90
2019-03-20T20:01:12.804Z,99.90
2019-03-20T20:03:41.118Z,99.90
2019-03-20T20:06:11.349Z,99.90
2019-03-20T20:08:40.052Z,99.90
2019-03-20T20:11:08.463Z,99.90
2019-03-20T20:13:37.050Z,99.90
2019-03-20T20:16:05.936Z,99.90
2019-03-20T20:18:34.090Z,99.90
2019-03-20T20:21:02.172Z,99.90
2019-03-20T20:23:36.527Z,99.90
2019-03-20T20:26:05.087Z,99.90
2019-03-20T20:28:33.227Z,99.90
2019-03-20T20:31:01.556Z,99.90
2019-03-20T20:33:30.296Z,99.90
2019-03-20T20:35:58.995Z,99.90
2019-03-20T20:38:30.435Z,99.90
2019-03-20T20:40:58.810Z,99.90
2019-03-20T20:43:27.180Z,99.90
2019-03-20T20:45:59.178Z,99.90
2019-03-20T20:48:27.712Z,99.90
2019-03-20T20:50:55.900Z,99.90
2019-03-20T20:53:27.600Z,99.90
2019-03-20T20:55:55.536Z,99.90
2019-03-20T20:58:23.444Z,99.90
2019-03-20T21:00:51.365Z,99.90
2019-03-20T21:03:19.321Z,99.90
2019-03-20T21:05:47.319Z,99.90
2019-03-20T21:08:15.472Z,99.90
2019-03-20T21:10:43.696Z,99.90
2019-03-20T21:13:11.687Z,99.90
2019-03-20T21:15:40.925Z,99.90
2019-03-20T21:18:19.137Z,99.90
2019-03-20T21:20:47.602Z,99.90
2019-03-20T21:23:49.719Z,99.90
2019-03-20T21:26:21.292Z,99.90
2019-03-20T21:28:57.646Z,99.90
2019-03-20T21:31:41.948Z,99.90
2019-03-20T21:34:27.781Z,99.90
2019-03-20T21:37:19.030Z,99.90
2019-03-20T21:39:49.995Z,99.90
2019-03-20T21:42:40.121Z,99.90
2019-03-20T21:45:27.261Z,99.90
2019-03-20T21:47:55.636Z,99.90
2019-03-20T21:50:32.753Z,99.90
2019-03-20T21:53:00.939Z,99.90
2019-03-20T21:55:48.068Z,99.90
2019-03-20T21:58:28.857Z,99.90
2019-03-20T22:01:24.992Z,99.90
2019-03-20T22:03:56.093Z,99.90
2019-03-20T22:06:41.941Z,99.90
2019-03-20T22:09:26.845Z,99.90
2019-03-20T22:12:15.484Z,99.90
2019-03-20T22:14:48.090Z,99.90
2019-03-20T22:17:51.118Z,99.90
2019-03-20T22:20:36.885Z,99.90
2019-03-20T22:23:24.011Z,99.90
2019-03-20T22:25:59.468Z,99.90
2019-03-20T22:28:38.378Z,99.90
2019-03-20T22:31:08.762Z,99.90
2019-03-20T22:33:57.599Z,99.90
2019-03-20T22:36:34.317Z,99.90
2019-03-20T22:39:21.674Z,99.90
2019-03-20T22:42:11.924Z,99.90
2019-03-20T22:44:52.365Z,99.90
2019-03-20T22:47:51.607Z,99.90
2019-03-20T22:50:22.285Z,99.90
2019-03-20T22:53:03.650Z,99.90
2019-03-20T22:55:53.811Z,99.90
2019-03-20T22:58:27.712Z,99.90
2019-03-20T23:00:58.141Z,99.90
2019-03-20T23:03:31.504Z,99.90
2019-03-20T23:05:59.672Z,99.90
2019-03-20T23:08:30.666Z,99.90
2019-03-20T23:10:58.875Z,99.90
2019-03-20T23:13:27.116Z,99.90
2019-03-20T23:15:55.557Z,99.90
2019-03-20T23:18:23.741Z,99.90
2019-03-20T23:20:51.892Z,99.90
2019-03-20T23:23:20.156Z,99.90
2019-03-20T23:25:48.361Z,99.90
2019-03-20T23:28:16.813Z,99.90
2019-03-20T23:30:48.029Z,99.90
2019-03-20T23:33:18.677Z,99.90
2019-03-20T23:35:47.083Z,99.90
2019-03-20T23:38:15.250Z,99.90
2019-03-20T23:40:43.450Z,99.90
2019-03-20T23:43:11.860Z,99.90
2019-03-20T23:45:40.057Z,99.90
2019-03-20T23:48:28.625Z,99.90
2019-03-20T23:50:58.700Z,99.90
2019-03-20T23:53:26.966Z,99.90
2019-03-20T23:55:55.236Z,99.90
2019-03-20T23:58:23.406Z,99.90
